Time;durP1;ratioP1;P1;durP2;ratioP2;P2;SDS_P1;SDS_P2;PMS_P1;PMS_P2;Temp;Humidity;BMP_temperature;BMP_pressure;BME280_temperature;BME280_humidity;BME280_pressure;Samples;Min_cycle;Max_cycle;Signal;HPM_P1;HPM_P2
2023/06/02 00:01:00;;;;;;;9.32;5.50;;;19.20;99.90;;;;;;5092926;28;20426;-77
2023/06/02 00:03:37;;;;;;;10.55;5.47;;;19.20;99.90;;;;;;5093014;28;20444;-77
2023/06/02 00:06:05;;;;;;;8.23;4.57;;;19.10;99.90;;;;;;5093193;28;20016;-77
2023/06/02 00:08:33;;;;;;;8.68;5.13;;;19.20;99.90;;;;;;5092941;28;20380;-78
2023/06/02 00:11:07;;;;;;;12.10;4.80;;;19.20;99.90;;;;;;5092597;28;20448;-77
2023/06/02 00:13:34;;;;;;;11.35;5.13;;;19.20;99.90;;;;;;5092897;28;20149;-77
2023/06/02 00:16:01;;;;;;;10.93;4.40;;;19.20;99.90;;;;;;5093181;28;20032;-76
2023/06/02 00:18:27;;;;;;;10.98;5.68;;;19.10;99.90;;;;;;5092739;28;20024;-76
2023/06/02 00:20:56;;;;;;;9.77;5.60;;;19.10;99.90;;;;;;5092931;28;20414;-77
2023/06/02 00:23:23;;;;;;;11.63;6.00;;;19.00;99.90;;;;;;5092414;28;20491;-76
2023/06/02 00:25:48;;;;;;;;;;;19.10;99.90;;;;;;5092945;28;20051;-78
2023/06/02 00:28:15;;;;;;;8.73;4.63;;;19.10;99.90;;;;;;5092875;28;19911;-76
2023/06/02 00:30:41;;;;;;;8.40;4.68;;;19.20;99.90;;;;;;5092798;28;20038;-76
2023/06/02 00:33:07;;;;;;;11.57;4.85;;;19.10;99.90;;;;;;5092450;28;20115;-76
2023/06/02 00:35:33;;;;;;;12.07;4.85;;;19.20;99.90;;;;;;5092475;28;20411;-76
2023/06/02 00:38:04;;;;;;;10.40;4.40;;;19.10;99.90;;;;;;5092238;28;20031;-77
2023/06/02 00:40:31;;;;;;;10.18;4.50;;;19.00;99.90;;;;;;5092308;28;20490;-76
2023/06/02 00:42:58;;;;;;;11.82;4.55;;;18.90;99.90;;;;;;5092249;28;20024;-77
2023/06/02 00:45:24;;;;;;;6.60;4.20;;;18.70;99.90;;;;;;5092602;28;20073;-78
2023/06/02 00:47:51;;;;;;;8.20;4.53;;;18.70;99.90;;;;;;5073908;28;20062;-76
2023/06/02 00:50:17;;;;;;;5.75;4.32;;;18.60;99.90;;;;;;5092283;28;20024;-77
2023/06/02 00:52:46;;;;;;;6.85;4.35;;;18.50;99.90;;;;;;5092050;28;20080;-76
2023/06/02 00:55:12;;;;;;;9.85;4.70;;;18.50;99.90;;;;;;5092295;28;20040;-78
2023/06/02 00:57:40;;;;;;;7.65;4.40;;;18.50;99.90;;;;;;5092464;28;20020;-77
2023/06/02 01:00:09;;;;;;;7.97;4.45;;;18.40;99.90;;;;;;5092224;28;20032;-77
2023/06/02 01:02:35;;;;;;;8.35;4.13;;;18.40;99.90;;;;;;5091809;28;20032;-77
2023/06/02 01:05:10;;;;;;;11.10;4.40;;;18.50;99.90;;;;;;5091869;28;20024;-77
2023/06/02 01:07:39;;;;;;;8.82;4.25;;;18.50;99.90;;;;;;5092058;28;20120;-77
2023/06/02 01:10:08;;;;;;;9.05;4.03;;;18.50;99.90;;;;;;5073608;28;20134;-75
2023/06/02 01:12:34;;;;;;;11.07;4.20;;;18.60;99.90;;;;;;5092104;28;20528;-77
2023/06/02 01:15:00;;;;;;;6.45;4.00;;;18.50;99.90;;;;;;5091860;28;20035;-76
2023/06/02 01:17:35;;;;;;;5.50;3.83;;;18.50;99.90;;;;;;5091848;28;20074;-78
2023/06/02 01:20:06;;;;;;;6.53;3.80;;;18.60;99.90;;;;;;5091992;28;20051;-76
2023/06/02 01:22:43;;;;;;;7.00;4.10;;;18.50;99.90;;;;;;5091637;28;20103;-77
2023/06/02 01:25:23;;;;;;;8.35;4.60;;;18.60;99.90;;;;;;5091969;28;20142;-78
2023/06/02 01:27:50;;;;;;;10.68;4.20;;;18.40;99.90;;;;;;5091472;28;20096;-77
2023/06/02 01:30:18;;;;;;;8.15;4.57;;;18.30;99.90;;;;;;5091884;28;20452;-77
2023/06/02 01:33:21;;;;;;;8.18;4.38;;;18.20;99.90;;;;;;5091492;28;20024;-77
2023/06/02 01:35:54;;;;;;;8.80;4.10;;;18.10;99.90;;;;;;5068219;28;20479;-76
2023/06/02 01:38:23;;;;;;;7.00;4.35;;;18.10;99.90;;;;;;5091521;28;20028;-76
2023/06/02 01:40:51;;;;;;;6.97;3.97;;;18.10;99.90;;;;;;5091460;28;20017;-78
2023/06/02 01:43:18;;;;;;;6.95;4.22;;;18.10;99.90;;;;;;5091327;28;20035;-77
2023/06/02 01:45:45;;;;;;;7.70;3.88;;;18.20;99.90;;;;;;5073131;28;20028;-77
2023/06/02 01:48:12;;;;;;;7.22;4.07;;;18.10;99.90;;;;;;5091169;28;20044;-77
2023/06/02 01:50:39;;;;;;;7.72;4.00;;;18.10;99.90;;;;;;5091363;28;20332;-77
2023/06/02 01:53:05;;;;;;;;;;;18.10;99.90;;;;;;5091665;28;20016;-77
2023/06/02 01:55:31;;;;;;;9.35;4.00;;;18.20;99.90;;;;;;5091086;28;19919;-77
2023/06/02 01:57:57;;;;;;;7.47;4.40;;;18.20;99.90;;;;;;5091008;28;20027;-77
2023/06/02 02:00:24;;;;;;;7.72;3.80;;;18.10;99.90;;;;;;5072913;28;20035;-76
2023/06/02 02:02:51;;;;;;;6.57;4.20;;;18.10;99.90;;;;;;5072127;28;20120;-77
2023/06/02 02:05:17;;;;;;;7.55;4.03;;;18.00;99.90;;;;;;5106447;28;20051;-77
2023/06/02 02:07:44;;;;;;;10.13;4.28;;;18.00;99.90;;;;;;5107161;28;20126;-77
2023/06/02 02:10:11;;;;;;;8.80;4.30;;;18.00;99.90;;;;;;5091140;28;20044;-76
2023/06/02 02:12:40;;;;;;;8.60;4.18;;;18.10;99.90;;;;;;5091018;28;20035;-77
2023/06/02 02:15:07;;;;;;;9.05;4.57;;;18.10;99.90;;;;;;5090817;28;20337;-76
2023/06/02 02:17:47;;;;;;;7.03;4.53;;;18.00;99.90;;;;;;5072855;28;20020;-77
2023/06/02 02:20:17;;;;;;;9.13;4.00;;;18.00;99.90;;;;;;5091265;28;20093;-78
2023/06/02 02:22:44;;;;;;;9.88;4.60;;;17.90;99.90;;;;;;5090906;28;20056;-77
2023/06/02 02:25:10;;;;;;;6.75;3.83;;;17.90;99.90;;;;;;5072686;28;20101;-77
2023/06/02 02:27:38;;;;;;;8.73;4.55;;;17.90;99.90;;;;;;5090996;28;20143;-76
2023/06/02 02:30:06;;;;;;;8.98;4.40;;;17.90;99.90;;;;;;5073007;28;20032;-77
2023/06/02 02:32:38;;;;;;;6.20;4.15;;;17.90;99.90;;;;;;5072335;28;20086;-77
2023/06/02 02:35:04;;;;;;;6.80;4.22;;;17.90;99.90;;;;;;5090623;28;20090;-76
2023/06/02 02:37:31;;;;;;;7.85;4.50;;;18.00;99.90;;;;;;5074137;28;20028;-77
2023/06/02 02:39:57;;;;;;;;;;;18.10;99.90;;;;;;5095335;28;20489;-78
2023/06/02 02:42:23;;;;;;;6.93;4.65;;;18.20;99.90;;;;;;5094835;28;19999;-77
2023/06/02 02:44:49;;;;;;;7.57;4.90;;;18.20;99.90;;;;;;5095234;28;20024;-77
2023/06/02 02:47:15;;;;;;;7.55;4.50;;;18.30;99.90;;;;;;5094351;28;20472;-77
2023/06/02 02:49:41;;;;;;;7.18;4.32;;;18.30;99.90;;;;;;5094655;28;20035;-76
2023/06/02 02:52:08;;;;;;;8.02;4.72;;;18.40;99.90;;;;;;5094561;28;20080;-78
2023/06/02 02:54:34;;;;;;;14.48;4.57;;;18.40;99.90;;;;;;5094985;28;20028;-77
2023/06/02 02:57:00;;;;;;;8.63;4.38;;;18.40;99.90;;;;;;5094874;28;20024;-77
2023/06/02 02:59:27;;;;;;;8.27;5.40;;;18.40;99.90;;;;;;5094423;28;20481;-77
2023/06/02 03:01:53;;;;;;;;;;;18.40;99.90;;;;;;5094834;28;20032;-78
2023/06/02 03:04:21;;;;;;;10.88;5.25;;;18.30;99.90;;;;;;5094576;28;19904;-77
2023/06/02 03:06:49;;;;;;;7.95;4.47;;;18.40;99.90;;;;;;5094401;28;20026;-78
2023/06/02 03:09:19;;;;;;;6.30;4.32;;;18.40;99.90;;;;;;5093722;28;20028;-78
2023/06/02 03:11:46;;;;;;;8.55;4.30;;;18.20;99.90;;;;;;5094640;28;20054;-77
2023/06/02 03:14:12;;;;;;;10.80;4.60;;;18.30;99.90;;;;;;5094216;28;20020;-77
2023/06/02 03:16:42;;;;;;;;;;;18.10;99.90;;;;;;5094624;28;20135;-77
2023/06/02 03:19:10;;;;;;;7.03;4.18;;;18.00;99.90;;;;;;5094239;28;19910;-77
2023/06/02 03:21:41;;;;;;;8.23;4.80;;;18.00;99.90;;;;;;5094170;28;20024;-78
2023/06/02 03:24:18;;;;;;;7.30;4.53;;;17.90;99.90;;;;;;5094087;28;20024;-79
2023/06/02 03:26:44;;;;;;;;;;;17.90;99.90;;;;;;5094414;28;20535;-78
2023/06/02 03:29:11;;;;;;;;;;;18.00;99.90;;;;;;5094685;28;19908;-77
2023/06/02 03:31:37;;;;;;;;;;;17.90;99.90;;;;;;5094886;28;19908;-76
2023/06/02 03:34:04;;;;;;;9.13;4.07;;;17.90;99.90;;;;;;5093858;28;19904;-77
2023/06/02 03:36:34;;;;;;;7.38;4.53;;;17.90;99.90;;;;;;5093894;28;20032;-78
2023/06/02 03:39:06;;;;;;;8.95;4.40;;;17.90;99.90;;;;;;5093548;28;20031;-77
2023/06/02 03:41:33;;;;;;;8.23;4.65;;;17.80;99.90;;;;;;5094050;28;20059;-77
2023/06/02 03:44:00;;;;;;;9.82;4.50;;;17.90;99.90;;;;;;5094068;28;20051;-77
2023/06/02 03:46:26;;;;;;;;;;;17.90;99.90;;;;;;5093953;28;20028;-76
2023/06/02 03:48:52;;;;;;;6.00;4.20;;;17.90;99.90;;;;;;5074616;28;19904;-78
2023/06/02 03:51:18;;;;;;;9.93;5.10;;;17.90;99.90;;;;;;5093575;28;20090;-77
2023/06/02 03:53:44;;;;;;;6.95;4.65;;;17.90;99.90;;;;;;5093406;28;20027;-77
2023/06/02 03:56:11;;;;;;;6.57;4.50;;;17.90;99.90;;;;;;5093586;28;20040;-78
2023/06/02 03:58:38;;;;;;;10.27;4.55;;;18.00;99.90;;;;;;5075122;28;20059;-77
2023/06/02 04:01:04;;;;;;;7.10;3.65;;;18.00;99.90;;;;;;5093338;28;20476;-77
2023/06/02 04:03:36;;;;;;;5.90;3.88;;;17.90;99.90;;;;;;5074833;28;20039;-77
2023/06/02 04:06:05;;;;;;;7.03;4.22;;;17.90;99.90;;;;;;5093476;28;20116;-78
2023/06/02 04:08:32;;;;;;;6.30;4.20;;;17.90;99.90;;;;;;5093051;28;20039;-77
2023/06/02 04:10:58;;;;;;;6.22;4.00;;;18.00;99.90;;;;;;5092958;28;20565;-78
2023/06/02 04:13:24;;;;;;;6.07;3.75;;;18.00;99.90;;;;;;5093196;28;20040;-79
2023/06/02 04:15:51;;;;;;;10.90;4.30;;;18.00;99.90;;;;;;5074665;28;20031;-78
2023/06/02 04:18:17;;;;;;;7.32;4.20;;;18.10;99.90;;;;;;5092727;28;20032;-77
2023/06/02 04:20:43;;;;;;;6.60;4.07;;;18.10;99.90;;;;;;5108471;28;20024;-77
2023/06/02 04:23:10;;;;;;;6.63;3.97;;;18.10;99.90;;;;;;5092836;28;20340;-78
2023/06/02 04:25:36;;;;;;;10.18;4.30;;;18.10;99.90;;;;;;5092739;28;20024;-76
2023/06/02 04:28:02;;;;;;;10.93;4.40;;;18.10;99.90;;;;;;5092914;28;20040;-77
2023/06/02 04:30:28;;;;;;;7.13;4.05;;;18.20;99.90;;;;;;5092758;28;20021;-77
2023/06/02 04:32:54;;;;;;;8.07;4.13;;;18.30;99.90;;;;;;5092911;28;20508;-76
2023/06/02 04:35:21;;;;;;;6.75;4.07;;;18.40;99.90;;;;;;5092797;28;20047;-76
2023/06/02 04:37:47;;;;;;;18.20;4.47;;;18.40;99.90;;;;;;5092169;28;20020;-76
2023/06/02 04:40:14;;;;;;;7.05;4.00;;;18.40;99.90;;;;;;5092467;28;20173;-76
2023/06/02 04:42:40;;;;;;;8.55;3.97;;;18.40;99.90;;;;;;5073897;28;20104;-77
2023/06/02 04:45:11;;;;;;;7.10;3.90;;;18.40;99.90;;;;;;5073741;28;20074;-76
2023/06/02 04:47:38;;;;;;;15.35;4.75;;;18.60;99.90;;;;;;5092012;28;20077;-75
2023/06/02 04:50:06;;;;;;;10.48;4.47;;;18.80;99.90;;;;;;5092329;28;20024;-76
2023/06/02 04:52:32;;;;;;;11.07;4.30;;;18.70;99.90;;;;;;5091546;28;20028;-77
2023/06/02 04:54:58;;;;;;;8.40;3.80;;;18.80;99.90;;;;;;5091845;28;20097;-76
2023/06/02 04:57:24;;;;;;;8.90;3.83;;;18.90;99.90;;;;;;5092117;28;20024;-76
2023/06/02 04:59:50;;;;;;;7.53;4.38;;;19.10;99.90;;;;;;5092185;28;20042;-76
2023/06/02 05:02:16;;;;;;;7.10;3.60;;;19.80;99.90;;;;;;5072557;28;20027;-76
2023/06/02 05:04:42;;;;;;;7.50;3.28;;;20.60;99.90;;;;;;5092061;28;20024;-77
2023/06/02 05:07:09;;;;;;;8.32;3.40;;;21.20;99.90;;;;;;5107615;28;20051;-76
2023/06/02 05:09:35;;;;;;;7.15;3.33;;;22.00;99.90;;;;;;5091767;28;20048;-77
2023/06/02 05:12:02;;;;;;;5.85;3.08;;;22.80;99.90;;;;;;5092241;28;20035;-75
2023/06/02 05:14:28;;;;;;;5.78;3.20;;;23.30;99.90;;;;;;5091410;28;20020;-76
2023/06/02 05:16:54;;;;;;;7.72;3.20;;;23.70;99.90;;;;;;5092004;28;20028;-76
2023/06/02 05:19:20;;;;;;;7.65;3.20;;;23.60;99.90;;;;;;5091883;28;20012;-76
2023/06/02 05:21:46;;;;;;;9.88;3.10;;;24.40;99.90;;;;;;5073171;28;20028;-77
2023/06/02 05:24:15;;;;;;;8.10;2.83;;;25.40;99.90;;;;;;5091412;28;20028;-77
2023/06/02 05:26:41;;;;;;;6.65;2.90;;;25.60;99.90;;;;;;5091841;28;20128;-74
2023/06/02 05:29:07;;;;;;;7.32;2.88;;;25.20;99.90;;;;;;5091800;28;20097;-74
2023/06/02 05:31:33;;;;;;;5.40;2.50;;;25.50;99.90;;;;;;5091602;28;20028;-75
2023/06/02 05:34:00;;;;;;;7.75;3.03;;;26.20;99.90;;;;;;5091592;28;20039;-76
2023/06/02 05:36:26;;;;;;;5.65;2.85;;;25.80;99.90;;;;;;5091588;28;20105;-76
2023/06/02 05:38:52;;;;;;;7.22;2.60;;;26.50;99.90;;;;;;5091364;28;20396;-76
2023/06/02 05:41:18;;;;;;;8.73;2.72;;;27.30;99.90;;;;;;5106684;28;20089;-77
2023/06/02 05:43:44;;;;;;;6.50;2.92;;;27.20;99.90;;;;;;5091371;28;20115;-76
2023/06/02 05:46:10;;;;;;;;;;;27.70;99.90;;;;;;5091771;28;20028;-75
2023/06/02 05:48:36;;;;;;;6.68;2.67;;;28.10;99.90;;;;;;5091081;28;19934;-76
2023/06/02 05:51:02;;;;;;;5.45;2.65;;;28.10;99.90;;;;;;5090936;28;20111;-76
2023/06/02 05:53:28;;;;;;;6.55;2.88;;;27.80;99.90;;;;;;5090587;28;20441;-75
2023/06/02 05:55:55;;;;;;;10.90;2.80;;;28.20;99.90;;;;;;5090801;28;20072;-77
2023/06/02 05:58:20;;;;;;;;;;;28.50;99.90;;;;;;5091343;28;20028;-75
2023/06/02 06:00:46;;;;;;;5.78;2.60;;;29.60;99.90;;;;;;5091117;28;19926;-76
2023/06/02 06:03:13;;;;;;;;;;;29.90;99.90;;;;;;5090961;28;20348;-76
2023/06/02 06:05:40;;;;;;;7.90;2.30;;;31.90;99.90;;;;;;5091055;28;19972;-77
2023/06/02 06:08:06;;;;;;;6.70;2.45;;;32.10;99.90;;;;;;5090477;28;20112;-76
2023/06/02 06:10:32;;;;;;;6.88;2.30;;;33.60;99.90;;;;;;5090413;28;20056;-77
2023/06/02 06:12:58;;;;;;;10.43;2.22;;;33.40;99.90;;;;;;5090458;28;20495;-77
2023/06/02 06:15:24;;;;;;;8.52;2.42;;;32.80;99.90;;;;;;5090455;28;20097;-76
2023/06/02 06:17:52;;;;;;;5.07;2.17;;;33.30;99.90;;;;;;5106483;28;20380;-77
2023/06/02 06:20:19;;;;;;;8.18;2.17;;;34.30;99.90;;;;;;5090944;28;20492;-77
2023/06/02 06:22:45;;;;;;;5.85;2.25;;;35.10;99.90;;;;;;5091032;28;20380;-76
2023/06/02 06:25:12;;;;;;;7.70;2.15;;;33.50;99.90;;;;;;5090944;28;20359;-75
2023/06/02 06:27:39;;;;;;;5.63;2.00;;;34.00;99.90;;;;;;5072967;28;20115;-76
2023/06/02 06:30:05;;;;;;;5.60;2.35;;;35.40;99.90;;;;;;5091145;28;20024;-77
2023/06/02 06:32:32;;;;;;;5.05;2.08;;;33.90;99.90;;;;;;5091304;28;20024;-76
2023/06/02 06:34:59;;;;;;;5.72;2.20;;;34.80;99.90;;;;;;5090835;28;20021;-75
2023/06/02 06:37:27;;;;;;;6.45;2.20;;;36.10;99.90;;;;;;5090843;28;20039;-75
2023/06/02 06:39:54;;;;;;;23.65;3.75;;;36.50;99.90;;;;;;5090697;28;20570;-76
2023/06/02 06:42:22;;;;;;;13.23;3.13;;;36.10;99.90;;;;;;5090896;28;20028;-77
2023/06/02 06:44:51;;;;;;;6.18;2.08;;;34.20;99.90;;;;;;5090820;28;20468;-76
2023/06/02 06:47:21;;;;;;;5.57;1.98;;;33.40;99.90;;;;;;5106319;28;20027;-76
2023/06/02 06:49:47;;;;;;;6.82;2.55;;;34.60;99.90;;;;;;5090664;28;20490;-77
2023/06/02 06:52:13;;;;;;;12.82;2.38;;;34.90;99.90;;;;;;5090901;28;20020;-77
2023/06/02 06:54:39;;;;;;;7.18;2.30;;;34.50;99.90;;;;;;5090665;28;20028;-78
2023/06/02 06:57:05;;;;;;;5.63;2.22;;;35.20;99.90;;;;;;5090700;28;20040;-77
2023/06/02 06:59:31;;;;;;;7.53;2.03;;;35.70;99.90;;;;;;5090684;28;20035;-77
2023/06/02 07:01:57;;;;;;;6.20;2.28;;;35.90;99.90;;;;;;5090453;28;20203;-77
2023/06/02 07:04:23;;;;;;;8.73;2.20;;;34.90;99.90;;;;;;5072457;28;20107;-77
2023/06/02 07:06:50;;;;;;;6.53;2.30;;;35.20;99.90;;;;;;5090870;28;20476;-77
2023/06/02 07:09:16;;;;;;;5.03;1.90;;;36.70;99.80;;;;;;5071902;28;20038;-78
2023/06/02 07:11:42;;;;;;;6.95;2.30;;;37.00;99.40;;;;;;5072283;28;20028;-77
2023/06/02 07:14:08;;;;;;;6.97;2.10;;;36.60;99.00;;;;;;5090883;28;20036;-77
2023/06/02 07:16:34;;;;;;;6.03;2.10;;;35.30;99.80;;;;;;5090931;28;20024;-77
2023/06/02 07:19:00;;;;;;;8.63;2.53;;;35.30;99.90;;;;;;5090267;28;20377;-76
2023/06/02 07:21:26;;;;;;;9.07;2.25;;;34.50;99.90;;;;;;5089946;28;20028;-76
2023/06/02 07:23:53;;;;;;;10.20;2.65;;;34.00;99.90;;;;;;5090407;28;20113;-77
2023/06/02 07:26:20;;;;;;;6.57;2.60;;;33.70;99.90;;;;;;5093867;28;20028;-76
2023/06/02 07:28:46;;;;;;;5.43;2.65;;;33.50;99.90;;;;;;5075485;28;20093;-77
2023/06/02 07:31:12;;;;;;;7.68;2.72;;;33.10;99.90;;;;;;5093860;28;20115;-77
2023/06/02 07:33:38;;;;;;;6.35;2.72;;;32.80;99.90;;;;;;5094096;28;20047;-76
2023/06/02 07:36:05;;;;;;;9.52;2.95;;;32.70;99.90;;;;;;5093721;28;20138;-76
2023/06/02 07:38:31;;;;;;;5.82;2.85;;;32.00;99.90;;;;;;5093817;28;20016;-77
2023/06/02 07:40:57;;;;;;;;;;;31.50;99.90;;;;;;5094404;28;20030;-78
2023/06/02 07:43:23;;;;;;;8.95;3.13;;;31.50;99.90;;;;;;5093989;28;19948;-78
2023/06/02 07:45:48;;;;;;;;;;;31.80;99.90;;;;;;5093809;28;20340;-77
2023/06/02 07:48:20;;;;;;;8.93;2.75;;;31.60;99.90;;;;;;5093574;28;19904;-78
2023/06/02 07:50:46;;;;;;;8.75;3.17;;;31.70;99.90;;;;;;5094075;28;20031;-79
2023/06/02 07:53:12;;;;;;;;;;;31.60;99.90;;;;;;5093773;28;20103;-77
2023/06/02 07:55:38;;;;;;;7.13;3.20;;;30.70;99.90;;;;;;5093474;28;19999;-77
2023/06/02 07:58:05;;;;;;;8.18;3.25;;;30.70;99.90;;;;;;5093701;28;20415;-78
2023/06/02 08:00:30;;;;;;;;;;;30.90;99.90;;;;;;5093571;28;20559;-78
2023/06/02 08:02:57;;;;;;;12.80;5.13;;;30.50;99.90;;;;;;5093522;28;20027;-78
2023/06/02 08:05:23;;;;;;;13.43;4.70;;;30.60;99.90;;;;;;5093490;28;20024;-78
2023/06/02 08:07:49;;;;;;;8.32;3.65;;;30.00;99.90;;;;;;5093309;28;20028;-78
2023/06/02 08:10:15;;;;;;;10.23;3.80;;;30.40;99.90;;;;;;5093080;28;20044;-79
2023/06/02 08:12:41;;;;;;;;;;;30.60;99.90;;;;;;5093482;28;20028;-76
2023/06/02 08:15:07;;;;;;;10.38;4.20;;;30.30;99.90;;;;;;5092176;28;19937;-77
2023/06/02 08:17:33;;;;;;;8.73;4.50;;;29.90;99.90;;;;;;5093242;28;20429;-78
2023/06/02 08:20:01;;;;;;;16.52;4.85;;;30.00;99.90;;;;;;5093566;28;20035;-78
2023/06/02 08:22:28;;;;;;;11.50;4.45;;;29.80;99.90;;;;;;5093765;28;20087;-77
2023/06/02 08:24:55;;;;;;;10.77;3.83;;;29.80;99.90;;;;;;5093274;28;20490;-77
2023/06/02 08:27:21;;;;;;;8.55;3.60;;;29.70;99.90;;;;;;5093556;28;20032;-78
2023/06/02 08:29:51;;;;;;;11.27;3.75;;;29.40;99.90;;;;;;5109073;28;20387;-77
2023/06/02 08:32:18;;;;;;;9.38;3.67;;;29.20;99.90;;;;;;5093492;28;20471;-78
2023/06/02 08:34:54;;;;;;;11.80;3.50;;;29.20;99.90;;;;;;5093332;28;20024;-77
2023/06/02 08:37:21;;;;;;;6.00;3.00;;;29.60;99.90;;;;;;5093845;28;20460;-78
2023/06/02 08:39:50;;;;;;;;;;;30.00;99.90;;;;;;5075309;28;20066;-78
2023/06/02 08:42:16;;;;;;;10.57;3.47;;;29.10;99.90;;;;;;5093374;28;19904;-78
2023/06/02 08:44:43;;;;;;;10.75;3.70;;;28.80;99.90;;;;;;5093221;28;20047;-78
2023/06/02 08:47:11;;;;;;;12.75;3.38;;;29.00;99.90;;;;;;5093602;28;20051;-78
2023/06/02 08:49:48;;;;;;;7.70;3.15;;;29.00;99.90;;;;;;5092625;28;20020;-77
2023/06/02 08:52:22;;;;;;;9.10;3.45;;;29.30;99.90;;;;;;5074170;28;20119;-77
2023/06/02 08:54:49;;;;;;;10.48;3.45;;;29.20;99.90;;;;;;5092059;28;20071;-76
2023/06/02 08:57:22;;;;;;;6.68;3.35;;;29.30;99.90;;;;;;5092150;28;20080;-77
2023/06/02 08:59:49;;;;;;;11.52;3.38;;;29.30;99.90;;;;;;5092491;28;20059;-77
2023/06/02 09:02:16;;;;;;;8.10;3.28;;;29.00;99.90;;;;;;5092326;28;20024;-77
2023/06/02 09:04:43;;;;;;;9.18;3.30;;;29.40;99.90;;;;;;5092211;28;20046;-78
2023/06/02 09:07:12;;;;;;;11.18;5.97;;;29.60;99.90;;;;;;5092254;28;20475;-77
2023/06/02 09:09:42;;;;;;;13.10;5.78;;;29.50;99.90;;;;;;5091881;28;20135;-79
2023/06/02 09:12:09;;;;;;;10.40;4.82;;;29.30;99.90;;;;;;5092830;28;20512;-78
2023/06/02 09:14:39;;;;;;;8.55;4.50;;;28.80;99.90;;;;;;5092298;28;20055;-77
2023/06/02 09:17:24;;;;;;;10.63;6.40;;;28.50;99.90;;;;;;5091906;28;20480;-78
2023/06/02 09:19:52;;;;;;;14.38;4.72;;;28.40;99.90;;;;;;5091925;28;20028;-78
2023/06/02 09:22:18;;;;;;;10.32;3.67;;;28.00;99.90;;;;;;5074179;28;20024;-78
2023/06/02 09:24:44;;;;;;;11.68;4.72;;;28.10;99.90;;;;;;5091659;28;20156;-77
2023/06/02 09:27:15;;;;;;;8.55;3.45;;;28.20;99.90;;;;;;5092256;28;20106;-77
2023/06/02 09:29:42;;;;;;;8.75;4.13;;;27.90;99.90;;;;;;5091849;28;20024;-77
2023/06/02 09:32:16;;;;;;;8.50;4.55;;;27.70;99.90;;;;;;5073389;28;20145;-76
2023/06/02 09:34:48;;;;;;;9.25;4.25;;;27.70;99.90;;;;;;5091941;28;20117;-79
2023/06/02 09:37:18;;;;;;;10.88;4.13;;;27.60;99.90;;;;;;5091836;28;20475;-77
2023/06/02 09:39:49;;;;;;;8.98;5.05;;;27.40;99.90;;;;;;5091254;28;20024;-78
2023/06/02 09:42:17;;;;;;;8.05;3.58;;;27.30;99.90;;;;;;5091675;28;20028;-77
2023/06/02 09:45:06;;;;;;;7.68;3.60;;;26.70;99.90;;;;;;5091165;28;20049;-79
2023/06/02 09:47:42;;;;;;;10.90;3.67;;;26.90;99.90;;;;;;5091187;28;20024;-77
2023/06/02 09:50:09;;;;;;;9.20;4.03;;;27.20;99.90;;;;;;5091559;28;20023;-78
2023/06/02 09:52:35;;;;;;;5.93;3.80;;;27.20;99.90;;;;;;5091244;28;20117;-77
2023/06/02 09:55:03;;;;;;;8.60;3.95;;;26.90;99.90;;;;;;5091198;28;20028;-78
2023/06/02 09:57:31;;;;;;;10.43;4.30;;;26.50;99.90;;;;;;5091168;28;20028;-78
2023/06/02 09:59:59;;;;;;;6.30;4.22;;;26.40;99.90;;;;;;5091546;28;20020;-78
2023/06/02 10:02:26;;;;;;;9.75;3.53;;;26.20;99.90;;;;;;5091085;28;20028;-76
2023/06/02 10:04:52;;;;;;;6.68;2.95;;;26.30;99.90;;;;;;5091245;28;20035;-78
2023/06/02 10:07:39;;;;;;;11.27;3.60;;;26.20;99.90;;;;;;5091245;28;20017;-77
2023/06/02 10:10:13;;;;;;;6.72;3.20;;;26.40;99.90;;;;;;5090498;28;20056;-77
2023/06/02 10:13:00;;;;;;;15.43;3.83;;;26.40;99.90;;;;;;5091002;28;20124;-77
2023/06/02 10:15:44;;;;;;;14.43;3.88;;;26.50;99.90;;;;;;5072852;28;20043;-79
2023/06/02 10:18:29;;;;;;;10.55;3.60;;;26.50;99.90;;;;;;5091255;28;20032;-77
2023/06/02 10:21:34;;;;;;;6.72;3.85;;;26.70;99.90;;;;;;5091214;28;20467;-78
2023/06/02 10:24:18;;;;;;;;;;;26.70;99.90;;;;;;5091289;28;20024;-77
2023/06/02 10:26:47;;;;;;;8.35;3.75;;;26.50;99.90;;;;;;5090834;28;19916;-78
2023/06/02 10:29:15;;;;;;;12.50;3.78;;;26.30;99.90;;;;;;5090944;28;20089;-77
2023/06/02 10:31:43;;;;;;;12.70;3.53;;;26.70;99.90;;;;;;5090325;28;20026;-77
2023/06/02 10:34:36;;;;;;;7.15;3.42;;;26.50;99.90;;;;;;5090663;28;20036;-78
2023/06/02 10:37:15;;;;;;;8.85;4.30;;;26.50;99.90;;;;;;5090747;28;20040;-77
2023/06/02 10:39:41;;;;;;;13.88;4.60;;;26.50;99.90;;;;;;5097046;28;20027;-78
2023/06/02 10:42:08;;;;;;;8.85;4.10;;;26.30;99.90;;;;;;5111497;28;20378;-78
2023/06/02 10:44:34;;;;;;;8.85;3.95;;;26.40;99.90;;;;;;5111241;28;20027;-77
2023/06/02 10:47:19;;;;;;;8.57;3.80;;;26.50;99.90;;;;;;5111203;28;20024;-78
2023/06/02 10:49:58;;;;;;;8.27;3.72;;;26.20;99.90;;;;;;5111287;28;20028;-77
2023/06/02 10:52:25;;;;;;;11.10;4.68;;;26.50;99.90;;;;;;5111338;28;20020;-78
2023/06/02 10:55:16;;;;;;;11.65;4.97;;;26.30;99.90;;;;;;5110683;28;20452;-78
2023/06/02 10:57:53;;;;;;;10.77;5.47;;;26.50;99.90;;;;;;5100954;28;20524;-76
2023/06/02 11:00:43;;;;;;;8.60;3.90;;;26.60;99.90;;;;;;5105539;28;20031;-78
2023/06/02 11:03:10;;;;;;;9.60;4.65;;;26.60;99.90;;;;;;5094445;28;20063;-77
2023/06/02 11:05:36;;;;;;;10.50;4.80;;;26.50;99.90;;;;;;5094309;28;20028;-78
2023/06/02 11:08:11;;;;;;;9.07;4.43;;;26.70;99.90;;;;;;5094663;28;20080;-77
2023/06/02 11:10:51;;;;;;;12.32;4.22;;;26.70;99.90;;;;;;5086534;28;20466;-78
2023/06/02 11:13:19;;;;;;;9.80;4.38;;;26.50;99.90;;;;;;5094102;28;20016;-78
2023/06/02 11:16:10;;;;;;;6.68;3.47;;;26.80;99.90;;;;;;5094260;28;20082;-77
2023/06/02 11:18:40;;;;;;;9.85;4.35;;;26.40;99.90;;;;;;5094433;28;20350;-77
2023/06/02 11:21:23;;;;;;;8.00;4.30;;;26.50;99.90;;;;;;5093962;28;20119;-77
2023/06/02 11:23:49;;;;;;;10.65;4.60;;;26.30;99.90;;;;;;5094269;28;20399;-78
2023/06/02 11:26:21;;;;;;;11.15;4.25;;;26.20;99.90;;;;;;5094404;28;20035;-78
2023/06/02 11:28:47;;;;;;;10.68;4.57;;;26.50;99.90;;;;;;5093995;28;20016;-77
2023/06/02 11:31:18;;;;;;;16.80;4.40;;;26.80;99.90;;;;;;5078193;28;20199;-77
2023/06/02 11:33:48;;;;;;;14.23;4.07;;;26.90;99.90;;;;;;5073918;28;20080;-76
2023/06/02 11:36:16;;;;;;;7.68;3.83;;;26.80;99.90;;;;;;5072441;28;20197;-77
2023/06/02 11:38:43;;;;;;;7.20;3.55;;;26.30;99.90;;;;;;5073379;28;20032;-77
2023/06/02 11:41:14;;;;;;;13.45;4.50;;;26.20;99.90;;;;;;5090630;28;20057;-77
2023/06/02 11:43:42;;;;;;;7.53;4.30;;;26.40;99.90;;;;;;5094121;28;20380;-78
2023/06/02 11:46:09;;;;;;;11.63;4.50;;;26.10;99.90;;;;;;5094349;28;20020;-77
2023/06/02 11:48:38;;;;;;;8.55;3.70;;;26.20;99.90;;;;;;5093858;28;20024;-77
2023/06/02 11:51:08;;;;;;;9.45;4.07;;;25.90;99.90;;;;;;5093912;28;20417;-77
2023/06/02 11:53:44;;;;;;;12.15;4.10;;;25.80;99.90;;;;;;5093496;28;20414;-77
2023/06/02 11:56:11;;;;;;;9.40;3.78;;;26.20;99.90;;;;;;5092360;28;20134;-77
2023/06/02 11:58:41;;;;;;;8.10;3.80;;;26.40;99.90;;;;;;5093158;28;20492;-77
2023/06/02 12:01:09;;;;;;;11.05;4.63;;;26.20;99.90;;;;;;5078495;28;20175;-78
2023/06/02 12:03:36;;;;;;;6.28;4.03;;;26.20;99.90;;;;;;5071419;28;20028;-77
2023/06/02 12:06:12;;;;;;;12.25;4.53;;;26.40;99.90;;;;;;5073541;28;20039;-78
2023/06/02 12:08:38;;;;;;;10.75;4.15;;;26.10;99.90;;;;;;5074001;28;20020;-77
2023/06/02 12:11:17;;;;;;;10.05;4.07;;;26.30;99.90;;;;;;5107260;28;20048;-77
2023/06/02 12:14:06;;;;;;;10.85;4.50;;;26.10;99.90;;;;;;5113907;28;20034;-77
2023/06/02 12:16:34;;;;;;;7.93;3.40;;;26.10;99.90;;;;;;5113769;28;20042;-77
2023/06/02 12:19:20;;;;;;;8.48;3.45;;;26.10;99.90;;;;;;5113516;28;20107;-77
2023/06/02 12:21:49;;;;;;;8.95;3.50;;;26.20;99.90;;;;;;5113522;28;20035;-78
2023/06/02 12:24:36;;;;;;;10.90;3.70;;;26.10;99.90;;;;;;5113411;28;20016;-77
2023/06/02 12:27:03;;;;;;;25.92;4.10;;;26.00;99.90;;;;;;5113600;28;20572;-77
2023/06/02 12:29:29;;;;;;;8.48;3.53;;;26.40;99.90;;;;;;5112232;28;20082;-77
2023/06/02 12:31:56;;;;;;;7.18;3.53;;;26.60;99.90;;;;;;5093043;28;20538;-77
2023/06/02 12:34:22;;;;;;;7.47;3.72;;;26.70;99.90;;;;;;5074472;28;20055;-77
2023/06/02 12:36:48;;;;;;;11.38;3.63;;;26.60;99.90;;;;;;5092710;28;20043;-77
2023/06/02 12:39:14;;;;;;;6.68;3.20;;;26.90;99.90;;;;;;5095222;28;20428;-78
2023/06/02 12:41:40;;;;;;;9.55;3.13;;;27.00;99.90;;;;;;5113010;28;20028;-77
2023/06/02 12:44:06;;;;;;;8.27;3.40;;;26.70;99.90;;;;;;5113073;28;20032;-78
2023/06/02 12:46:32;;;;;;;7.25;3.83;;;26.50;99.90;;;;;;5112885;28;20106;-76
2023/06/02 12:48:58;;;;;;;12.40;4.07;;;26.20;99.90;;;;;;5113125;28;20435;-77
2023/06/02 12:51:25;;;;;;;6.40;3.20;;;26.50;99.90;;;;;;5113015;28;20054;-77
2023/06/02 12:53:51;;;;;;;8.38;3.20;;;26.80;99.90;;;;;;5112786;28;20153;-78
2023/06/02 12:56:17;;;;;;;8.25;3.35;;;27.10;99.90;;;;;;5112766;28;20035;-77